createdAt,value
2019-05-02T00:01:02.676Z,34.60
2019-05-02T00:02:08.194Z,34.90
2019-05-02T00:03:13.700Z,33.70
2019-05-02T00:04:21.046Z,34.10
2019-05-02T00:05:27.316Z,32.50
2019-05-02T00:06:30.223Z,32.20
2019-05-02T00:07:35.731Z,29.30
2019-05-02T00:08:41.225Z,29.50
2019-05-02T00:09:48.358Z,29.00
2019-05-02T00:10:52.259Z,29.70
2019-05-02T00:11:58.910Z,29.20
2019-05-02T00:13:03.275Z,28.50
2019-05-02T00:14:08.787Z,29.80
2019-05-02T00:15:14.319Z,31.20
2019-05-02T00:16:19.801Z,33.70
2019-05-02T00:17:27.401Z,36.80
2019-05-02T00:18:31.846Z,38.40
2019-05-02T00:19:36.337Z,39.10
2019-05-02T00:20:41.841Z,33.50
2019-05-02T00:21:47.355Z,35.80
2019-05-02T00:22:53.462Z,39.30
2019-05-02T00:23:59.166Z,36.00
2019-05-02T00:25:03.887Z,32.50
2019-05-02T00:26:09.390Z,35.80
2019-05-02T00:27:14.911Z,33.10
2019-05-02T00:28:20.408Z,34.80
2019-05-02T00:29:25.944Z,36.10
2019-05-02T00:30:34.760Z,32.40
2019-05-02T00:31:36.939Z,31.70
2019-05-02T00:32:42.451Z,30.30
2019-05-02T00:33:47.962Z,32.10
2019-05-02T00:34:53.472Z,32.20
2019-05-02T00:35:58.984Z,34.20
2019-05-02T00:37:04.487Z,35.30
2019-05-02T00:38:09.997Z,35.30
2019-05-02T00:39:15.506Z,35.30
2019-05-02T00:40:25.765Z,31.90
2019-05-02T00:41:26.570Z,35.00
2019-05-02T00:42:32.036Z,32.20
2019-05-02T00:43:37.548Z,32.10
2019-05-02T00:44:47.030Z,30.40
2019-05-02T00:45:48.563Z,30.30
2019-05-02T00:46:54.075Z,29.50
2019-05-02T00:47:59.579Z,32.80
2019-05-02T00:49:05.089Z,31.70
2019-05-02T00:50:11.310Z,30.60
2019-05-02T00:51:16.111Z,28.30
2019-05-02T00:52:21.627Z,29.40
2019-05-02T00:53:27.124Z,29.90
2019-05-02T00:54:32.641Z,30.60
2019-05-02T00:55:38.151Z,30.60
2019-05-02T00:56:44.274Z,33.90
2019-05-02T00:57:50.852Z,33.50
2019-05-02T00:58:54.682Z,32.60
2019-05-02T01:00:00.195Z,35.40
2019-05-02T01:01:05.703Z,35.00
2019-05-02T01:02:11.205Z,36.40
2019-05-02T01:03:17.959Z,37.30
2019-05-02T01:04:23.388Z,31.90
2019-05-02T01:05:27.736Z,35.90
2019-05-02T01:06:33.241Z,34.60
2019-05-02T01:07:38.767Z,33.40
2019-05-02T01:08:44.266Z,34.60
2019-05-02T01:09:49.770Z,33.20
2019-05-02T01:10:56.864Z,33.20
2019-05-02T01:12:03.187Z,31.00
2019-05-02T01:13:06.298Z,30.50
2019-05-02T01:14:11.813Z,30.90
2019-05-02T01:15:17.338Z,31.70
2019-05-02T01:16:22.831Z,32.30
2019-05-02T01:17:30.902Z,30.60
2019-05-02T01:20:01.482Z,35.40
2019-05-02T01:21:26.163Z,34.60
2019-05-02T01:22:21.045Z,33.10
2019-05-02T01:23:29.294Z,34.20
2019-05-02T01:24:42.769Z,34.20
2019-05-02T01:25:47.234Z,34.80
2019-05-02T01:26:45.751Z,34.40
2019-05-02T01:27:50.366Z,33.80
2019-05-02T01:28:59.488Z,35.40
2019-05-02T01:30:18.744Z,36.80
2019-05-02T01:31:18.263Z,35.60
2019-05-02T01:32:29.955Z,35.40
2019-05-02T01:33:36.992Z,37.40
2019-05-02T01:34:38.945Z,38.10
2019-05-02T01:36:01.607Z,37.90
2019-05-02T01:36:41.136Z,36.00
2019-05-02T01:37:54.776Z,36.40
2019-05-02T01:39:08.880Z,35.60
2019-05-02T01:40:06.326Z,37.60
2019-05-02T01:41:09.604Z,39.00
2019-05-02T01:42:09.509Z,40.50
2019-05-02T01:43:06.855Z,38.80
2019-05-02T01:44:36.142Z,39.50
2019-05-02T01:45:26.434Z,39.60
2019-05-02T01:46:28.890Z,39.90
2019-05-02T01:47:44.772Z,40.70
2019-05-02T01:48:49.796Z,38.30
2019-05-02T01:49:45.500Z,39.00
2019-05-02T01:50:48.886Z,40.30
2019-05-02T01:51:56.881Z,40.10
2019-05-02T01:53:04.361Z,38.90
2019-05-02T01:54:16.554Z,38.40
2019-05-02T01:55:21.071Z,39.10
2019-05-02T01:56:32.933Z,40.10
2019-05-02T01:57:29.376Z,39.90
2019-05-02T01:58:40.749Z,39.70
2019-05-02T01:59:41.266Z,40.10
2019-05-02T02:00:52.643Z,40.30
2019-05-02T02:02:03.196Z,41.50
2019-05-02T02:03:14.776Z,40.50
2019-05-02T02:03:52.661Z,38.90
2019-05-02T02:05:16.424Z,39.20
2019-05-02T02:06:22.985Z,38.40
2019-05-02T02:07:21.458Z,40.80
2019-05-02T02:08:32.329Z,41.90
2019-05-02T02:09:30.379Z,40.20
2019-05-02T02:11:15.034Z,40.30
2019-05-02T02:12:18.215Z,41.10
2019-05-02T02:13:14.024Z,40.80
2019-05-02T02:14:18.230Z,41.50
2019-05-02T02:15:30.828Z,40.30
2019-05-02T02:16:35.117Z,39.80
2019-05-02T02:17:39.546Z,40.20
2019-05-02T02:18:53.686Z,39.70
2019-05-02T02:19:29.935Z,37.80
2019-05-02T02:20:50.261Z,38.60
2019-05-02T02:22:47.879Z,39.20
2019-05-02T02:23:19.539Z,38.70
2019-05-02T02:24:45.020Z,37.30
2019-05-02T02:25:37.487Z,35.70
2019-05-02T02:26:51.496Z,36.70
2019-05-02T02:28:26.311Z,37.00
2019-05-02T02:29:43.872Z,37.70
2019-05-02T02:30:32.576Z,38.20
2019-05-02T02:31:54.902Z,37.80
2019-05-02T02:33:27.480Z,36.90
2019-05-02T02:34:02.313Z,38.10
2019-05-02T02:35:19.498Z,38.60
2019-05-02T02:37:05.358Z,38.70
2019-05-02T02:37:52.741Z,37.60
2019-05-02T02:39:20.757Z,38.50
2019-05-02T02:40:01.520Z,39.40
2019-05-02T02:41:12.770Z,39.50
2019-05-02T02:42:52.711Z,37.90
2019-05-02T02:43:41.568Z,36.50
2019-05-02T02:44:44.246Z,36.90
2019-05-02T02:45:57.471Z,37.40
2019-05-02T02:46:53.778Z,36.60
2019-05-02T02:49:26.262Z,37.40
2019-05-02T02:50:45.074Z,39.20
2019-05-02T02:51:43.261Z,35.60
2019-05-02T02:52:54.026Z,33.40
2019-05-02T02:53:43.795Z,32.10
2019-05-02T02:55:25.065Z,32.50
2019-05-02T02:56:58.246Z,32.20
2019-05-02T02:57:34.202Z,31.70
2019-05-02T02:59:45.469Z,33.20
2019-05-02T03:01:02.780Z,33.30
2019-05-02T03:02:03.117Z,37.50
2019-05-02T03:03:45.707Z,38.10
2019-05-02T03:04:26.778Z,38.60
2019-05-02T03:06:05.285Z,37.20
2019-05-02T03:07:04.459Z,38.00
2019-05-02T03:08:05.193Z,39.10
2019-05-02T03:09:02.423Z,37.00
2019-05-02T03:10:17.076Z,35.40
2019-05-02T03:11:43.297Z,36.60
2019-05-02T03:12:36.056Z,33.40
2019-05-02T03:14:00.120Z,35.10
2019-05-02T03:14:31.143Z,35.20
2019-05-02T03:15:52.245Z,35.50
2019-05-02T03:17:02.071Z,36.80
2019-05-02T03:18:20.818Z,35.20
2019-05-02T03:19:20.927Z,35.20
2019-05-02T03:20:07.929Z,36.40
2019-05-02T03:21:28.933Z,38.50
2019-05-02T03:22:34.628Z,40.60
2019-05-02T03:23:14.927Z,38.80
2019-05-02T03:24:28.857Z,38.50
2019-05-02T03:25:24.918Z,38.00
2019-05-02T03:27:07.667Z,37.90
2019-05-02T03:28:02.669Z,37.20
2019-05-02T03:28:52.326Z,37.50
2019-05-02T03:30:20.219Z,35.90
2019-05-02T03:31:41.086Z,36.50
2019-05-02T03:32:34.963Z,37.30
2019-05-02T03:34:05.261Z,38.10
2019-05-02T03:34:54.241Z,39.40
2019-05-02T03:36:34.877Z,40.80
2019-05-02T03:37:53.100Z,40.00
2019-05-02T03:38:54.135Z,37.20
2019-05-02T03:39:41.444Z,37.90
2019-05-02T03:41:03.983Z,37.70
2019-05-02T03:42:03.000Z,38.30
2019-05-02T03:42:53.750Z,36.90
2019-05-02T03:44:32.004Z,38.00
2019-05-02T03:45:39.614Z,38.60
2019-05-02T03:46:39.756Z,37.00
2019-05-02T03:47:47.438Z,37.60
2019-05-02T03:48:35.666Z,35.80
2019-05-02T03:49:52.632Z,35.80
2019-05-02T03:50:50.631Z,34.90
2019-05-02T03:51:35.074Z,37.60
2019-05-02T03:53:17.402Z,37.10
2019-05-02T03:53:40.615Z,36.40
2019-05-02T03:54:56.084Z,38.30
2019-05-02T03:56:29.376Z,37.40
2019-05-02T03:59:44.044Z,37.90
2019-05-02T04:00:29.402Z,37.40
2019-05-02T04:01:47.741Z,35.80
2019-05-02T04:03:00.073Z,38.50
2019-05-02T04:03:57.482Z,37.50
2019-05-02T04:05:18.989Z,37.40
2019-05-02T04:06:13.559Z,38.10
2019-05-02T04:06:54.808Z,36.80
2019-05-02T04:08:26.589Z,37.90
2019-05-02T04:09:02.238Z,36.70
2019-05-02T04:10:43.702Z,37.00
2019-05-02T04:11:15.966Z,36.50
2019-05-02T04:12:32.784Z,36.90
2019-05-02T04:13:38.127Z,37.50
2019-05-02T04:14:40.064Z,36.80
2019-05-02T04:15:39.027Z,37.90
2019-05-02T04:16:54.993Z,36.60
2019-05-02T04:18:08.271Z,37.90
2019-05-02T04:19:08.231Z,37.10
2019-05-02T04:20:26.774Z,36.80
2019-05-02T04:21:13.059Z,37.30
2019-05-02T04:22:28.635Z,37.30
2019-05-02T04:23:21.091Z,38.10
2019-05-02T04:24:25.468Z,38.60
2019-05-02T04:25:38.480Z,39.20
2019-05-02T04:26:45.825Z,38.80
2019-05-02T04:27:42.393Z,38.70
2019-05-02T04:29:07.174Z,37.20
2019-05-02T04:30:03.938Z,38.90
2019-05-02T04:31:11.698Z,38.60
2019-05-02T04:32:14.133Z,36.90
2019-05-02T04:33:14.367Z,37.90
2019-05-02T04:34:14.935Z,38.10
2019-05-02T04:35:42.645Z,37.90
2019-05-02T04:36:23.403Z,38.30
2019-05-02T04:37:34.147Z,40.50
2019-05-02T04:38:54.449Z,39.40
2019-05-02T04:39:39.072Z,39.00
2019-05-02T04:40:49.847Z,39.40
2019-05-02T04:41:48.594Z,38.80
2019-05-02T04:43:18.310Z,37.60
2019-05-02T04:44:02.773Z,40.00
2019-05-02T04:45:13.920Z,38.50
2019-05-02T04:46:25.558Z,38.70
2019-05-02T04:47:29.054Z,38.50
2019-05-02T04:48:20.411Z,39.70
2019-05-02T04:49:35.732Z,37.90
2019-05-02T04:50:32.305Z,38.40
2019-05-02T04:51:38.087Z,37.70
2019-05-02T04:52:53.869Z,37.60
2019-05-02T04:53:54.955Z,37.50
2019-05-02T04:55:00.830Z,37.70
2019-05-02T04:56:18.899Z,38.60
2019-05-02T04:57:11.977Z,38.90
2019-05-02T04:58:27.364Z,38.80
2019-05-02T04:59:17.816Z,38.70
2019-05-02T05:00:32.062Z,37.70
2019-05-02T05:01:48.157Z,37.50
2019-05-02T05:02:40.480Z,37.40
2019-05-02T05:03:48.404Z,38.60
2019-05-02T05:04:46.363Z,38.60
2019-05-02T05:06:07.287Z,38.90
2019-05-02T05:07:00.970Z,39.60
2019-05-02T05:08:16.809Z,38.70
2019-05-02T05:09:09.650Z,38.60
2019-05-02T05:10:20.361Z,38.00
2019-05-02T05:11:39.412Z,38.60
2019-05-02T05:12:27.770Z,39.60
2019-05-02T05:13:26.254Z,39.70
2019-05-02T05:14:42.894Z,39.10
2019-05-02T05:15:51.710Z,39.20
2019-05-02T05:16:55.336Z,38.90
2019-05-02T05:17:58.307Z,39.50
2019-05-02T05:19:04.035Z,39.80
2019-05-02T05:20:00.114Z,38.40
2019-05-02T05:21:18.043Z,39.90
2019-05-02T05:22:22.284Z,39.30
2019-05-02T05:23:34.066Z,38.30
2019-05-02T05:24:42.137Z,39.60
2019-05-02T05:25:38.098Z,40.00
2019-05-02T05:26:43.609Z,40.20
2019-05-02T05:27:47.919Z,39.40
2019-05-02T05:28:48.743Z,38.70
2019-05-02T05:30:07.628Z,39.60
2019-05-02T05:31:00.939Z,38.80
2019-05-02T05:32:09.766Z,39.70
2019-05-02T05:33:10.193Z,38.60
2019-05-02T05:34:17.493Z,38.80
2019-05-02T05:35:23.806Z,37.90
2019-05-02T05:36:34.365Z,38.50
2019-05-02T05:37:38.072Z,38.40
2019-05-02T05:38:44.307Z,39.20
2019-05-02T05:39:50.951Z,38.90
2019-05-02T05:40:55.276Z,38.00
2019-05-02T05:41:58.463Z,37.10
2019-05-02T05:43:02.056Z,38.30
2019-05-02T05:44:10.250Z,37.00
2019-05-02T05:45:13.810Z,38.40
2019-05-02T05:46:20.706Z,38.40
2019-05-02T05:47:27.683Z,37.90
2019-05-02T05:48:31.979Z,38.10
2019-05-02T05:49:37.527Z,38.60
2019-05-02T05:50:37.084Z,37.80
2019-05-02T05:51:41.331Z,37.20
2019-05-02T05:52:44.415Z,38.60
2019-05-02T05:53:56.743Z,37.90
2019-05-02T05:54:54.451Z,38.60
2019-05-02T05:56:11.048Z,36.90
2019-05-02T05:57:16.727Z,37.90
2019-05-02T05:58:28.371Z,36.00
2019-05-02T05:59:17.508Z,38.80
2019-05-02T06:00:40.769Z,37.50
2019-05-02T06:01:34.572Z,35.90
2019-05-02T06:02:50.899Z,37.70
2019-05-02T06:03:44.631Z,36.10
2019-05-02T06:04:55.121Z,37.40
2019-05-02T06:06:00.573Z,36.20
2019-05-02T06:07:07.264Z,37.00
2019-05-02T06:08:08.877Z,36.60
2019-05-02T06:09:13.854Z,36.20
2019-05-02T06:10:18.311Z,36.30
2019-05-02T06:11:21.774Z,36.00
2019-05-02T06:12:30.047Z,37.10
2019-05-02T06:13:38.040Z,36.20
2019-05-02T06:14:38.715Z,36.70
2019-05-02T06:15:47.433Z,36.90
2019-05-02T06:16:56.242Z,35.10
2019-05-02T06:18:04.850Z,36.90
2019-05-02T06:19:03.424Z,35.90
2019-05-02T06:20:09.367Z,36.00
2019-05-02T06:21:11.627Z,36.60
2019-05-02T06:22:24.132Z,35.40
2019-05-02T06:23:20.765Z,36.80
2019-05-02T06:24:38.888Z,36.10
2019-05-02T06:25:42.887Z,35.90
2019-05-02T06:26:44.581Z,36.60
2019-05-02T06:27:49.965Z,36.30
2019-05-02T06:28:41.788Z,36.90
2019-05-02T06:30:06.978Z,38.00
2019-05-02T06:31:08.688Z,37.10
2019-05-02T06:32:04.947Z,37.50
2019-05-02T06:33:15.192Z,36.70
2019-05-02T06:34:11.612Z,36.90
2019-05-02T06:35:21.147Z,36.70
2019-05-02T06:36:36.760Z,37.60
2019-05-02T06:37:29.972Z,38.00
2019-05-02T06:38:42.771Z,37.50
2019-05-02T06:39:46.567Z,38.00
2019-05-02T06:40:50.978Z,37.50
2019-05-02T06:42:00.002Z,37.70
2019-05-02T06:43:04.089Z,37.20
2019-05-02T06:44:00.729Z,36.30
2019-05-02T06:45:13.540Z,38.30
2019-05-02T06:46:27.653Z,37.20
2019-05-02T06:47:29.110Z,36.50
2019-05-02T06:48:31.788Z,38.20
2019-05-02T06:49:29.739Z,38.00
2019-05-02T06:50:40.682Z,37.20
2019-05-02T06:51:41.324Z,37.50
2019-05-02T06:52:48.397Z,37.80
2019-05-02T06:54:09.294Z,37.30
2019-05-02T06:55:09.913Z,38.10
2019-05-02T06:56:15.249Z,37.70
2019-05-02T06:57:18.913Z,37.80
2019-05-02T06:58:17.208Z,37.90
2019-05-02T06:59:20.280Z,39.00
2019-05-02T07:00:37.263Z,38.90
2019-05-02T07:01:46.104Z,39.30
2019-05-02T07:02:39.153Z,39.10
2019-05-02T07:03:46.145Z,38.00
2019-05-02T07:04:48.070Z,35.70
2019-05-02T07:05:58.544Z,34.40
2019-05-02T07:07:03.524Z,35.40
2019-05-02T07:08:13.385Z,36.30
2019-05-02T07:09:09.392Z,36.20
2019-05-02T07:10:19.844Z,35.30
2019-05-02T07:11:24.771Z,34.80
2019-05-02T07:12:33.181Z,35.00
2019-05-02T07:13:30.622Z,35.80
2019-05-02T07:14:45.590Z,35.40
2019-05-02T07:15:49.791Z,34.60
2019-05-02T07:16:49.588Z,34.70
2019-05-02T07:18:05.427Z,34.40
2019-05-02T07:19:03.116Z,34.10
2019-05-02T07:20:14.087Z,35.10
2019-05-02T07:21:12.035Z,34.40
2019-05-02T07:22:21.062Z,34.90
2019-05-02T07:23:23.522Z,34.90
2019-05-02T07:24:30.865Z,36.20
2019-05-02T07:25:31.935Z,36.90
2019-05-02T07:26:52.210Z,35.80
2019-05-02T07:27:56.623Z,36.70
2019-05-02T07:29:01.652Z,36.00
2019-05-02T07:29:58.015Z,35.90
2019-05-02T07:30:59.821Z,35.00
2019-05-02T07:32:19.077Z,35.70
2019-05-02T07:33:16.122Z,35.20
2019-05-02T07:34:18.787Z,34.60
2019-05-02T07:35:24.312Z,34.40
2019-05-02T07:36:31.010Z,34.60
2019-05-02T07:37:33.139Z,34.20
2019-05-02T07:38:43.292Z,35.10
2019-05-02T07:39:42.255Z,35.40
2019-05-02T07:40:52.868Z,34.90
2019-05-02T07:42:07.847Z,35.30
2019-05-02T07:43:02.053Z,34.50
2019-05-02T07:44:11.279Z,34.40
2019-05-02T07:45:28.285Z,35.10
2019-05-02T07:46:29.726Z,34.70
2019-05-02T07:47:34.784Z,33.50
2019-05-02T07:48:29.325Z,33.80
2019-05-02T07:49:41.004Z,35.00
2019-05-02T07:50:35.892Z,34.90
2019-05-02T07:51:46.957Z,33.70
2019-05-02T07:52:54.047Z,35.30
2019-05-02T07:53:59.980Z,34.90
2019-05-02T07:55:10.082Z,36.50
2019-05-02T07:56:12.415Z,34.70
2019-05-02T07:57:18.122Z,34.90
2019-05-02T07:58:31.341Z,36.70
2019-05-02T07:59:37.903Z,36.40
2019-05-02T08:00:36.970Z,35.20
2019-05-02T08:01:30.642Z,35.80
2019-05-02T08:02:44.578Z,34.70
2019-05-02T08:03:48.899Z,35.70
2019-05-02T08:04:54.953Z,35.10
2019-05-02T08:06:06.923Z,34.80
2019-05-02T08:06:59.663Z,35.10
2019-05-02T08:08:11.753Z,35.40
2019-05-02T08:09:24.862Z,34.00
2019-05-02T08:10:32.558Z,34.20
2019-05-02T08:11:22.729Z,34.80
2019-05-02T08:12:48.749Z,34.10
2019-05-02T08:13:35.544Z,35.60
2019-05-02T08:15:00.288Z,33.30
2019-05-02T08:15:56.858Z,33.90
2019-05-02T08:17:05.006Z,35.10
2019-05-02T08:17:56.766Z,35.80
2019-05-02T08:19:16.639Z,34.80
2019-05-02T08:20:29.035Z,35.70
2019-05-02T08:21:36.620Z,35.80
2019-05-02T08:22:21.470Z,34.70
2019-05-02T08:23:27.816Z,36.80
2019-05-02T08:25:10.267Z,34.80
2019-05-02T08:25:41.386Z,34.10
2019-05-02T08:27:09.419Z,35.50
2019-05-02T08:27:57.653Z,35.50
2019-05-02T08:28:59.605Z,35.10
2019-05-02T08:30:35.310Z,35.80
2019-05-02T08:31:18.812Z,34.90
2019-05-02T08:32:12.934Z,35.40
2019-05-02T08:33:19.291Z,35.00
2019-05-02T08:35:16.850Z,37.20
2019-05-02T08:35:48.799Z,35.60
2019-05-02T08:37:41.241Z,37.60
2019-05-02T08:38:42.777Z,38.40
2019-05-02T08:39:33.566Z,39.40
2019-05-02T08:40:42.331Z,39.00
2019-05-02T08:41:33.586Z,40.70
2019-05-02T08:42:56.115Z,39.70
2019-05-02T08:43:44.821Z,42.60
2019-05-02T08:45:25.726Z,42.10
2019-05-02T08:45:54.918Z,42.20
2019-05-02T08:47:17.839Z,43.40
2019-05-02T08:48:15.505Z,41.80
2019-05-02T08:49:31.182Z,40.90
2019-05-02T08:50:34.091Z,42.00
2019-05-02T08:51:27.302Z,41.70
2019-05-02T08:52:18.294Z,40.00
2019-05-02T08:53:39.109Z,41.30
2019-05-02T08:54:46.571Z,42.20
2019-05-02T08:56:00.610Z,41.20
2019-05-02T08:57:09.218Z,42.60
2019-05-02T08:57:55.706Z,40.90
2019-05-02T08:59:13.122Z,41.90
2019-05-02T09:00:18.553Z,42.00
2019-05-02T09:01:34.301Z,41.20
2019-05-02T09:02:40.557Z,41.20
2019-05-02T09:03:28.216Z,40.70
2019-05-02T09:04:30.668Z,40.20
2019-05-02T09:05:36.318Z,41.50
2019-05-02T09:06:42.668Z,40.00
2019-05-02T09:07:48.912Z,40.50
2019-05-02T09:08:40.227Z,41.80
2019-05-02T09:09:55.522Z,39.60
2019-05-02T09:11:06.760Z,39.40
2019-05-02T09:12:12.599Z,38.90
2019-05-02T09:13:04.928Z,39.00
2019-05-02T09:14:15.988Z,38.00
2019-05-02T09:15:23.578Z,37.70
2019-05-02T09:16:42.681Z,38.30
2019-05-02T09:17:35.125Z,37.60
2019-05-02T09:18:54.492Z,36.50
2019-05-02T09:19:59.174Z,36.30
2019-05-02T09:20:57.299Z,36.80
2019-05-02T09:21:59.968Z,38.10
2019-05-02T09:23:01.763Z,36.40
2019-05-02T09:24:20.677Z,35.90
2019-05-02T09:25:12.477Z,35.60
2019-05-02T09:26:32.467Z,36.10
2019-05-02T09:27:18.948Z,36.20
2019-05-02T09:28:34.835Z,35.20
2019-05-02T09:29:48.858Z,35.60
2019-05-02T09:30:57.179Z,36.00
2019-05-02T09:31:47.951Z,36.90
2019-05-02T09:32:44.622Z,35.40
2019-05-02T09:33:57.184Z,36.30
2019-05-02T09:35:08.867Z,36.40
2019-05-02T09:36:06.821Z,34.10
2019-05-02T09:37:22.654Z,33.40
2019-05-02T09:38:18.717Z,34.60
2019-05-02T09:39:39.006Z,33.60
2019-05-02T09:40:35.728Z,33.90
2019-05-02T09:41:36.212Z,34.20
2019-05-02T09:42:43.033Z,33.20
2019-05-02T09:43:42.282Z,33.00
2019-05-02T09:44:56.888Z,35.20
2019-05-02T09:46:02.574Z,34.00
2019-05-02T09:47:05.462Z,34.30
2019-05-02T09:48:21.920Z,33.90
2019-05-02T09:49:16.492Z,35.40
2019-05-02T09:50:26.580Z,35.10
2019-05-02T09:51:24.032Z,35.20
2019-05-02T09:52:39.192Z,35.70
2019-05-02T09:53:32.745Z,33.90
2019-05-02T09:54:41.777Z,35.00
2019-05-02T09:55:55.128Z,34.20
2019-05-02T09:56:54.574Z,34.30
2019-05-02T09:57:58.170Z,34.90
2019-05-02T09:59:23.366Z,33.40
2019-05-02T10:00:12.741Z,33.70
2019-05-02T10:01:18.579Z,34.10
2019-05-02T10:02:17.548Z,34.40
2019-05-02T10:03:26.871Z,34.50
2019-05-02T10:04:44.049Z,34.00
2019-05-02T10:05:47.574Z,34.10
2019-05-02T10:06:52.382Z,33.70
2019-05-02T10:07:42.568Z,34.30
2019-05-02T10:09:02.802Z,34.10
2019-05-02T10:10:12.547Z,34.60
2019-05-02T10:11:07.785Z,33.60
2019-05-02T10:12:05.633Z,35.00
2019-05-02T10:13:14.349Z,33.50
2019-05-02T10:14:22.579Z,34.00
2019-05-02T10:15:14.975Z,33.80
2019-05-02T10:16:39.865Z,32.90
2019-05-02T10:17:44.806Z,34.50
2019-05-02T10:18:49.093Z,33.90
2019-05-02T10:19:48.797Z,34.00
2019-05-02T10:21:08.082Z,33.50
2019-05-02T10:21:56.410Z,33.30
2019-05-02T10:23:32.537Z,33.50
2019-05-02T10:24:15.345Z,33.50
2019-05-02T10:25:37.688Z,32.20
2019-05-02T10:26:29.796Z,32.50
2019-05-02T10:27:57.653Z,32.90
2019-05-02T10:28:53.331Z,31.10
2019-05-02T10:29:44.662Z,31.40
2019-05-02T10:31:22.455Z,31.90
2019-05-02T10:31:54.203Z,32.80
2019-05-02T10:33:27.875Z,31.90
2019-05-02T10:34:17.501Z,33.50
2019-05-02T10:35:55.561Z,31.50
2019-05-02T10:36:46.666Z,30.80
2019-05-02T10:37:42.911Z,31.60
2019-05-02T10:38:48.881Z,32.10
2019-05-02T10:39:55.991Z,32.30
2019-05-02T10:40:59.322Z,31.40
2019-05-02T10:41:52.838Z,31.90
2019-05-02T10:43:11.714Z,32.40
2019-05-02T10:44:12.908Z,31.20
2019-05-02T10:44:57.773Z,31.90
2019-05-02T10:46:16.108Z,31.10
2019-05-02T10:47:13.870Z,31.20
2019-05-02T10:48:27.459Z,30.70
2019-05-02T10:49:26.779Z,31.20
2019-05-02T10:50:28.836Z,30.30
2019-05-02T10:51:41.098Z,30.50
2019-05-02T10:52:48.713Z,30.70
2019-05-02T10:53:42.383Z,29.00
2019-05-02T10:54:49.240Z,30.00
2019-05-02T10:55:58.265Z,30.10
2019-05-02T10:56:58.057Z,30.60
2019-05-02T10:58:05.642Z,29.90
2019-05-02T10:59:07.085Z,29.40
2019-05-02T11:00:24.709Z,29.60
2019-05-02T11:01:34.955Z,29.60
2019-05-02T11:02:32.850Z,28.40
2019-05-02T11:03:31.892Z,28.60
2019-05-02T11:04:38.451Z,30.60
2019-05-02T11:05:57.828Z,28.80
2019-05-02T11:06:51.819Z,28.90
2019-05-02T11:07:56.769Z,28.20
2019-05-02T11:09:08.183Z,28.50
2019-05-02T11:10:14.431Z,28.20
2019-05-02T11:11:15.359Z,27.40
2019-05-02T11:12:25.557Z,27.30
2019-05-02T11:13:37.184Z,26.60
2019-05-02T11:14:31.886Z,26.30
2019-05-02T11:15:46.832Z,27.00
2019-05-02T11:16:42.307Z,28.10
2019-05-02T11:17:50.114Z,27.70
2019-05-02T11:19:02.538Z,28.00
2019-05-02T11:20:07.024Z,26.90
2019-05-02T11:21:12.202Z,27.30
2019-05-02T11:22:05.398Z,27.70
2019-05-02T11:23:12.590Z,28.80
2019-05-02T11:24:23.434Z,29.30
2019-05-02T11:25:26.412Z,29.90
2019-05-02T11:26:36.455Z,28.40
2019-05-02T11:27:37.279Z,28.40
2019-05-02T11:28:47.627Z,28.80
2019-05-02T11:29:42.823Z,28.80
2019-05-02T11:30:57.036Z,28.40
2019-05-02T11:31:53.895Z,27.30
2019-05-02T11:33:04.756Z,27.50
2019-05-02T11:34:07.528Z,28.70
2019-05-02T11:35:19.056Z,27.70
2019-05-02T11:36:19.520Z,27.90
2019-05-02T11:37:32.911Z,27.50
2019-05-02T11:38:33.396Z,28.10
2019-05-02T11:39:44.924Z,27.10
2019-05-02T11:40:38.083Z,26.60
2019-05-02T11:41:56.729Z,25.50
2019-05-02T11:43:01.865Z,25.40
2019-05-02T11:44:12.072Z,25.10
2019-05-02T11:45:12.073Z,27.00
2019-05-02T11:46:18.773Z,26.30
2019-05-02T11:47:21.881Z,26.70
2019-05-02T11:48:24.420Z,26.60
2019-05-02T11:49:32.208Z,25.30
2019-05-02T11:50:36.105Z,24.60
2019-05-02T11:51:46.914Z,24.60
2019-05-02T11:52:42.398Z,23.90
2019-05-02T11:53:42.135Z,26.10
2019-05-02T11:55:01.999Z,25.40
2019-05-02T11:55:53.022Z,24.70
2019-05-02T11:57:11.694Z,26.50
2019-05-02T11:58:15.271Z,25.30
2019-05-02T11:59:14.940Z,25.00
2019-05-02T12:00:21.862Z,26.10
2019-05-02T12:01:37.304Z,25.10
2019-05-02T12:02:36.086Z,25.60
2019-05-02T12:03:42.391Z,24.80
2019-05-02T12:04:47.510Z,25.10
2019-05-02T12:05:58.737Z,25.80
2019-05-02T12:07:04.729Z,24.30
2019-05-02T12:08:12.281Z,25.00
2019-05-02T12:09:08.602Z,25.50
2019-05-02T12:10:12.798Z,25.60
2019-05-02T12:11:27.545Z,27.40
2019-05-02T12:12:36.246Z,25.40
2019-05-02T12:13:32.130Z,25.50
2019-05-02T12:14:36.227Z,26.00
2019-05-02T12:15:42.185Z,24.70
2019-05-02T12:17:06.703Z,24.10
2019-05-02T12:17:54.733Z,23.70
2019-05-02T12:19:08.492Z,24.70
2019-05-02T12:20:04.878Z,25.30
2019-05-02T12:21:32.414Z,25.00
2019-05-02T12:22:23.983Z,25.40
2019-05-02T12:23:32.761Z,25.60
2019-05-02T12:24:40.748Z,24.40
2019-05-02T12:25:32.765Z,25.20
2019-05-02T12:26:42.086Z,25.00
2019-05-02T12:27:52.847Z,26.00
2019-05-02T12:28:47.744Z,24.30
2019-05-02T12:30:13.033Z,23.90
2019-05-02T12:31:07.900Z,24.20
2019-05-02T12:32:15.584Z,25.10
2019-05-02T12:33:16.946Z,25.40
2019-05-02T12:34:23.606Z,25.00
2019-05-02T12:35:35.086Z,24.10
2019-05-02T12:36:33.223Z,23.60
2019-05-02T12:37:51.137Z,24.20
2019-05-02T12:38:49.547Z,26.20
2019-05-02T12:40:07.368Z,25.60
2019-05-02T12:40:57.955Z,26.10
2019-05-02T12:42:12.647Z,26.10
2019-05-02T12:43:19.673Z,25.50
2019-05-02T12:44:38.831Z,25.20
2019-05-02T12:45:35.151Z,26.90
2019-05-02T12:46:33.835Z,25.70
2019-05-02T12:47:48.896Z,26.00
2019-05-02T12:48:36.505Z,23.60
2019-05-02T12:49:51.925Z,23.90
2019-05-02T12:51:09.388Z,23.70
2019-05-02T12:51:46.044Z,23.30
2019-05-02T12:53:07.865Z,22.00
2019-05-02T12:54:04.203Z,21.80
2019-05-02T12:55:07.572Z,23.60
2019-05-02T12:56:08.807Z,23.20
2019-05-02T12:57:31.994Z,23.10
2019-05-02T12:58:28.277Z,23.10
2019-05-02T12:59:37.192Z,24.20
2019-05-02T13:00:47.245Z,23.10
2019-05-02T13:01:44.996Z,24.40
2019-05-02T13:02:53.209Z,24.30
2019-05-02T13:03:54.631Z,25.60
2019-05-02T13:05:17.405Z,24.20
2019-05-02T13:06:17.886Z,24.10
2019-05-02T13:07:23.336Z,25.60
2019-05-02T13:08:18.110Z,25.10
2019-05-02T13:09:20.468Z,25.90
2019-05-02T13:10:21.969Z,25.30
2019-05-02T13:11:52.215Z,24.80
2019-05-02T13:12:32.270Z,25.80
2019-05-02T13:13:49.589Z,25.00
2019-05-02T13:14:42.620Z,26.90
2019-05-02T13:16:12.202Z,26.70
2019-05-02T13:17:23.213Z,25.30
2019-05-02T13:18:34.001Z,26.50
2019-05-02T13:19:19.821Z,26.00
2019-05-02T13:20:15.843Z,24.50
2019-05-02T13:21:38.615Z,25.50
2019-05-02T13:22:28.118Z,25.00
2019-05-02T13:23:42.350Z,23.50
2019-05-02T13:24:38.182Z,22.20
2019-05-02T13:25:42.443Z,22.00
2019-05-02T13:26:38.608Z,21.30
2019-05-02T13:28:06.980Z,21.20
2019-05-02T13:29:03.819Z,21.90
2019-05-02T13:30:42.433Z,22.20
2019-05-02T13:31:19.286Z,22.50
2019-05-02T13:32:18.569Z,22.60
2019-05-02T13:33:43.670Z,23.50
2019-05-02T13:34:22.043Z,21.80
2019-05-02T13:35:31.784Z,21.70
2019-05-02T13:36:39.292Z,21.70
2019-05-02T13:37:46.057Z,21.60
2019-05-02T13:39:15.657Z,21.60
2019-05-02T13:39:54.368Z,22.10
2019-05-02T13:41:28.984Z,21.10
2019-05-02T13:42:02.673Z,23.40
2019-05-02T13:43:21.798Z,21.90
2019-05-02T13:44:34.124Z,21.70
2019-05-02T13:45:23.992Z,22.30
2019-05-02T13:46:35.169Z,21.00
2019-05-02T13:48:02.628Z,21.60
2019-05-02T13:49:06.312Z,22.30
2019-05-02T13:50:05.916Z,21.30
2019-05-02T13:51:09.192Z,21.90
2019-05-02T13:52:14.004Z,21.00
2019-05-02T13:53:38.183Z,22.00
2019-05-02T13:54:21.687Z,19.80
2019-05-02T13:55:31.763Z,20.50
2019-05-02T13:56:26.530Z,20.70
2019-05-02T13:57:34.149Z,20.30
2019-05-02T13:58:37.091Z,20.50
2019-05-02T14:00:02.594Z,20.20
2019-05-02T14:00:57.582Z,21.10
2019-05-02T14:01:58.928Z,21.00
2019-05-02T14:03:24.219Z,20.20
2019-05-02T14:04:10.031Z,20.80
2019-05-02T14:05:12.949Z,20.40
2019-05-02T14:06:12.427Z,20.70
2019-05-02T14:07:17.250Z,21.20
2019-05-02T14:08:19.753Z,22.00
2019-05-02T14:09:50.236Z,21.90
2019-05-02T14:10:39.078Z,21.60
2019-05-02T14:11:41.129Z,21.90
2019-05-02T14:12:44.915Z,21.80
2019-05-02T14:13:36.167Z,21.30
2019-05-02T14:15:00.032Z,21.10
2019-05-02T14:15:52.615Z,22.20